sensor_id;sensor_type;location;lat;lon;timestamp;temperature;humidity
40534;DHT22;26233;51.894;10.192;2023-07-13T00:00:36;20.10;37.70
40534;DHT22;26233;51.894;10.192;2023-07-13T00:03:04;20.10;37.60
40534;DHT22;26233;51.894;10.192;2023-07-13T00:05:31;20.10;37.60
40534;DHT22;26233;51.894;10.192;2023-07-13T00:07:58;20.00;37.60
40534;DHT22;26233;51.894;10.192;2023-07-13T00:10:25;20.00;37.60
40534;DHT22;26233;51.894;10.192;2023-07-13T00:12:54;20.00;37.80
40534;DHT22;26233;51.894;10.192;2023-07-13T00:15:23;20.00;38.00
40534;DHT22;26233;51.894;10.192;2023-07-13T00:17:53;19.90;38.00
40534;DHT22;26233;51.894;10.192;2023-07-13T00:20:22;19.90;37.90
40534;DHT22;26233;51.894;10.192;2023-07-13T00:22:51;20.00;38.20
40534;DHT22;26233;51.894;10.192;2023-07-13T00:25:19;20.00;38.20
40534;DHT22;26233;51.894;10.192;2023-07-13T00:27:47;20.00;38.20
40534;DHT22;26233;51.894;10.192;2023-07-13T00:30:17;20.00;38.30
40534;DHT22;26233;51.894;10.192;2023-07-13T00:32:44;20.00;38.40
40534;DHT22;26233;51.894;10.192;2023-07-13T00:35:13;20.10;38.40
40534;DHT22;26233;51.894;10.192;2023-07-13T00:37:41;20.10;38.50
40534;DHT22;26233;51.894;10.192;2023-07-13T00:40:10;20.10;38.50
40534;DHT22;26233;51.894;10.192;2023-07-13T00:42:37;20.20;38.50
40534;DHT22;26233;51.894;10.192;2023-07-13T00:46:02;20.20;38.40
40534;DHT22;26233;51.894;10.192;2023-07-13T00:48:21;20.30;38.50
40534;DHT22;26233;51.894;10.192;2023-07-13T00:50:52;20.40;38.60
40534;DHT22;26233;51.894;10.192;2023-07-13T00:53:20;20.40;38.50
40534;DHT22;26233;51.894;10.192;2023-07-13T00:55:49;20.50;38.50
40534;DHT22;26233;51.894;10.192;2023-07-13T00:58:18;20.60;38.60
40534;DHT22;26233;51.894;10.192;2023-07-13T01:00:47;20.60;38.50
40534;DHT22;26233;51.894;10.192;2023-07-13T01:03:18;20.70;38.50
40534;DHT22;26233;51.894;10.192;2023-07-13T01:05:47;20.70;39.10
40534;DHT22;26233;51.894;10.192;2023-07-13T01:08:15;20.80;38.60
40534;DHT22;26233;51.894;10.192;2023-07-13T01:10:51;20.80;38.60
40534;DHT22;26233;51.894;10.192;2023-07-13T01:13:19;20.80;38.70
40534;DHT22;26233;51.894;10.192;2023-07-13T01:15:48;20.80;38.50
40534;DHT22;26233;51.894;10.192;2023-07-13T01:18:21;20.90;38.50
40534;DHT22;26233;51.894;10.192;2023-07-13T01:20:52;20.90;38.50
40534;DHT22;26233;51.894;10.192;2023-07-13T01:23:21;20.90;38.50
40534;DHT22;26233;51.894;10.192;2023-07-13T01:25:48;20.90;38.40
40534;DHT22;26233;51.894;10.192;2023-07-13T01:28:16;21.00;38.50
40534;DHT22;26233;51.894;10.192;2023-07-13T01:30:44;21.00;38.50
40534;DHT22;26233;51.894;10.192;2023-07-13T01:33:12;21.00;38.50
40534;DHT22;26233;51.894;10.192;2023-07-13T01:35:40;21.00;38.50
40534;DHT22;26233;51.894;10.192;2023-07-13T01:38:10;21.00;38.40
40534;DHT22;26233;51.894;10.192;2023-07-13T01:40:38;21.00;38.50
40534;DHT22;26233;51.894;10.192;2023-07-13T01:43:06;21.10;38.50
40534;DHT22;26233;51.894;10.192;2023-07-13T01:45:33;21.00;38.30
40534;DHT22;26233;51.894;10.192;2023-07-13T01:48:00;21.00;38.40
40534;DHT22;26233;51.894;10.192;2023-07-13T01:50:27;21.00;38.40
40534;DHT22;26233;51.894;10.192;2023-07-13T01:52:56;21.00;38.40
40534;DHT22;26233;51.894;10.192;2023-07-13T01:55:24;21.00;38.50
40534;DHT22;26233;51.894;10.192;2023-07-13T01:57:51;21.00;38.50
40534;DHT22;26233;51.894;10.192;2023-07-13T02:00:19;21.00;38.60
40534;DHT22;26233;51.894;10.192;2023-07-13T02:02:46;21.00;38.50
40534;DHT22;26233;51.894;10.192;2023-07-13T02:05:14;21.00;38.40
40534;DHT22;26233;51.894;10.192;2023-07-13T02:07:41;21.00;38.50
40534;DHT22;26233;51.894;10.192;2023-07-13T02:10:09;21.00;38.50
40534;DHT22;26233;51.894;10.192;2023-07-13T02:12:38;21.00;38.50
40534;DHT22;26233;51.894;10.192;2023-07-13T02:15:06;21.00;38.50
40534;DHT22;26233;51.894;10.192;2023-07-13T02:17:34;21.00;38.50
40534;DHT22;26233;51.894;10.192;2023-07-13T02:20:01;20.90;38.50
40534;DHT22;26233;51.894;10.192;2023-07-13T02:22:29;20.90;38.40
40534;DHT22;26233;51.894;10.192;2023-07-13T02:24:56;20.90;38.40
40534;DHT22;26233;51.894;10.192;2023-07-13T02:27:23;20.80;38.30
40534;DHT22;26233;51.894;10.192;2023-07-13T02:29:52;20.80;38.30
40534;DHT22;26233;51.894;10.192;2023-07-13T02:32:19;20.80;38.40
40534;DHT22;26233;51.894;10.192;2023-07-13T02:34:46;20.80;38.40
40534;DHT22;26233;51.894;10.192;2023-07-13T02:37:13;20.70;38.30
40534;DHT22;26233;51.894;10.192;2023-07-13T02:39:40;20.70;38.30
40534;DHT22;26233;51.894;10.192;2023-07-13T02:42:07;20.70;38.30
40534;DHT22;26233;51.894;10.192;2023-07-13T02:44:34;20.60;38.30
40534;DHT22;26233;51.894;10.192;2023-07-13T02:47:06;20.60;38.40
40534;DHT22;26233;51.894;10.192;2023-07-13T02:49:33;20.60;38.40
40534;DHT22;26233;51.894;10.192;2023-07-13T02:52:02;20.50;38.30
40534;DHT22;26233;51.894;10.192;2023-07-13T02:54:29;20.50;38.30
40534;DHT22;26233;51.894;10.192;2023-07-13T02:56:56;20.40;38.20
40534;DHT22;26233;51.894;10.192;2023-07-13T02:59:23;20.40;38.30
40534;DHT22;26233;51.894;10.192;2023-07-13T03:01:50;20.30;38.20
40534;DHT22;26233;51.894;10.192;2023-07-13T03:04:19;20.30;38.30
40534;DHT22;26233;51.894;10.192;2023-07-13T03:06:46;20.20;38.20
40534;DHT22;26233;51.894;10.192;2023-07-13T03:09:13;20.20;38.20
40534;DHT22;26233;51.894;10.192;2023-07-13T03:11:40;20.10;38.20
40534;DHT22;26233;51.894;10.192;2023-07-13T03:14:07;20.00;38.20
40534;DHT22;26233;51.894;10.192;2023-07-13T03:16:35;20.00;38.30
40534;DHT22;26233;51.894;10.192;2023-07-13T03:19:02;20.00;38.40
40534;DHT22;26233;51.894;10.192;2023-07-13T03:21:31;19.90;38.40
40534;DHT22;26233;51.894;10.192;2023-07-13T03:23:58;19.90;38.50
40534;DHT22;26233;51.894;10.192;2023-07-13T03:26:25;19.90;38.50
40534;DHT22;26233;51.894;10.192;2023-07-13T03:28:52;19.80;38.50
40534;DHT22;26233;51.894;10.192;2023-07-13T03:31:21;19.80;38.60
40534;DHT22;26233;51.894;10.192;2023-07-13T03:33:51;19.80;38.70
40534;DHT22;26233;51.894;10.192;2023-07-13T03:36:20;19.70;38.60
40534;DHT22;26233;51.894;10.192;2023-07-13T03:38:52;19.70;38.70
40534;DHT22;26233;51.894;10.192;2023-07-13T03:41:21;19.70;38.80
40534;DHT22;26233;51.894;10.192;2023-07-13T03:43:49;19.70;38.80
40534;DHT22;26233;51.894;10.192;2023-07-13T03:46:17;19.60;38.70
40534;DHT22;26233;51.894;10.192;2023-07-13T03:48:46;19.60;38.70
40534;DHT22;26233;51.894;10.192;2023-07-13T03:51:15;19.60;38.80
40534;DHT22;26233;51.894;10.192;2023-07-13T03:53:45;19.60;38.80
40534;DHT22;26233;51.894;10.192;2023-07-13T03:56:15;19.60;38.90
40534;DHT22;26233;51.894;10.192;2023-07-13T03:58:47;19.60;38.90
40534;DHT22;26233;51.894;10.192;2023-07-13T04:01:17;19.50;38.80
40534;DHT22;26233;51.894;10.192;2023-07-13T04:03:45;19.50;38.90
40534;DHT22;26233;51.894;10.192;2023-07-13T04:06:15;19.50;39.00
40534;DHT22;26233;51.894;10.192;2023-07-13T04:08:47;19.60;39.20
40534;DHT22;26233;51.894;10.192;2023-07-13T04:11:17;19.50;39.20
40534;DHT22;26233;51.894;10.192;2023-07-13T04:13:45;19.60;39.40
40534;DHT22;26233;51.894;10.192;2023-07-13T04:16:12;19.60;39.30
40534;DHT22;26233;51.894;10.192;2023-07-13T04:18:39;19.70;39.40
40534;DHT22;26233;51.894;10.192;2023-07-13T04:21:08;19.80;39.40
40534;DHT22;26233;51.894;10.192;2023-07-13T04:23:35;19.70;39.40
40534;DHT22;26233;51.894;10.192;2023-07-13T04:26:03;19.80;39.50
40534;DHT22;26233;51.894;10.192;2023-07-13T04:28:32;19.80;39.50
40534;DHT22;26233;51.894;10.192;2023-07-13T04:31:00;19.80;39.50
40534;DHT22;26233;51.894;10.192;2023-07-13T04:33:27;19.90;39.60
40534;DHT22;26233;51.894;10.192;2023-07-13T04:35:55;20.00;39.70
40534;DHT22;26233;51.894;10.192;2023-07-13T04:38:23;20.00;39.70
40534;DHT22;26233;51.894;10.192;2023-07-13T04:40:54;20.00;39.60
40534;DHT22;26233;51.894;10.192;2023-07-13T04:43:22;20.10;40.30
40534;DHT22;26233;51.894;10.192;2023-07-13T04:45:51;20.20;39.80
40534;DHT22;26233;51.894;10.192;2023-07-13T04:48:19;20.20;39.80
40534;DHT22;26233;51.894;10.192;2023-07-13T04:50:47;20.20;39.70
40534;DHT22;26233;51.894;10.192;2023-07-13T04:53:14;20.30;39.70
40534;DHT22;26233;51.894;10.192;2023-07-13T04:55:41;20.40;39.70
40534;DHT22;26233;51.894;10.192;2023-07-13T04:58:08;20.40;39.70
40534;DHT22;26233;51.894;10.192;2023-07-13T05:00:38;20.40;39.60
40534;DHT22;26233;51.894;10.192;2023-07-13T05:03:07;20.40;39.70
40534;DHT22;26233;51.894;10.192;2023-07-13T05:05:34;20.50;39.80
40534;DHT22;26233;51.894;10.192;2023-07-13T05:08:01;20.50;39.80
40534;DHT22;26233;51.894;10.192;2023-07-13T05:10:28;20.50;39.80
40534;DHT22;26233;51.894;10.192;2023-07-13T05:12:55;20.60;40.60
40534;DHT22;26233;51.894;10.192;2023-07-13T05:15:23;20.60;39.90
40534;DHT22;26233;51.894;10.192;2023-07-13T05:17:51;20.70;40.00
40534;DHT22;26233;51.894;10.192;2023-07-13T05:20:19;20.80;40.00
40534;DHT22;26233;51.894;10.192;2023-07-13T05:22:46;20.80;40.00
40534;DHT22;26233;51.894;10.192;2023-07-13T05:25:14;20.80;39.90
40534;DHT22;26233;51.894;10.192;2023-07-13T05:27:41;20.90;40.00
40534;DHT22;26233;51.894;10.192;2023-07-13T05:30:11;20.90;39.90
40534;DHT22;26233;51.894;10.192;2023-07-13T05:32:38;20.90;39.80
40534;DHT22;26233;51.894;10.192;2023-07-13T05:35:06;21.00;39.90
40534;DHT22;26233;51.894;10.192;2023-07-13T05:37:37;21.00;39.90
40534;DHT22;26233;51.894;10.192;2023-07-13T05:40:05;21.00;39.80
40534;DHT22;26233;51.894;10.192;2023-07-13T05:42:32;20.90;39.70
40534;DHT22;26233;51.894;10.192;2023-07-13T05:45:03;20.90;39.70
40534;DHT22;26233;51.894;10.192;2023-07-13T05:47:30;20.90;39.80
40534;DHT22;26233;51.894;10.192;2023-07-13T05:49:57;20.90;39.90
40534;DHT22;26233;51.894;10.192;2023-07-13T05:52:24;20.90;40.00
40534;DHT22;26233;51.894;10.192;2023-07-13T05:54:55;20.90;40.10
40534;DHT22;26233;51.894;10.192;2023-07-13T05:57:22;20.80;39.90
40534;DHT22;26233;51.894;10.192;2023-07-13T05:59:49;20.80;40.00
40534;DHT22;26233;51.894;10.192;2023-07-13T06:02:16;20.80;40.00
40534;DHT22;26233;51.894;10.192;2023-07-13T06:04:43;20.80;40.20
40534;DHT22;26233;51.894;10.192;2023-07-13T06:07:10;20.90;40.30
40534;DHT22;26233;51.894;10.192;2023-07-13T06:09:37;20.80;40.20
40534;DHT22;26233;51.894;10.192;2023-07-13T06:12:07;20.80;40.20
40534;DHT22;26233;51.894;10.192;2023-07-13T06:14:34;20.90;40.30
40534;DHT22;26233;51.894;10.192;2023-07-13T06:17:01;20.90;40.20
40534;DHT22;26233;51.894;10.192;2023-07-13T06:19:29;21.00;40.40
40534;DHT22;26233;51.894;10.192;2023-07-13T06:21:56;21.00;40.30
40534;DHT22;26233;51.894;10.192;2023-07-13T06:24:24;21.10;40.40
40534;DHT22;26233;51.894;10.192;2023-07-13T06:26:51;21.10;41.00
40534;DHT22;26233;51.894;10.192;2023-07-13T06:29:19;21.10;40.40
40534;DHT22;26233;51.894;10.192;2023-07-13T06:31:46;21.20;40.50
40534;DHT22;26233;51.894;10.192;2023-07-13T06:34:13;21.20;40.50
40534;DHT22;26233;51.894;10.192;2023-07-13T06:36:40;21.30;40.50
40534;DHT22;26233;51.894;10.192;2023-07-13T06:39:10;21.40;40.30
40534;DHT22;26233;51.894;10.192;2023-07-13T06:41:37;21.30;40.10
40534;DHT22;26233;51.894;10.192;2023-07-13T06:44:05;21.40;40.00
40534;DHT22;26233;51.894;10.192;2023-07-13T06:46:34;21.40;40.10
40534;DHT22;26233;51.894;10.192;2023-07-13T06:49:01;21.40;40.00
40534;DHT22;26233;51.894;10.192;2023-07-13T06:51:28;21.50;40.20
40534;DHT22;26233;51.894;10.192;2023-07-13T06:53:55;21.50;40.10
40534;DHT22;26233;51.894;10.192;2023-07-13T06:56:22;21.60;40.10
40534;DHT22;26233;51.894;10.192;2023-07-13T06:58:49;21.60;40.00
40534;DHT22;26233;51.894;10.192;2023-07-13T07:01:16;21.70;40.00
40534;DHT22;26233;51.894;10.192;2023-07-13T07:03:45;21.80;40.00
40534;DHT22;26233;51.894;10.192;2023-07-13T07:06:15;21.80;39.90
40534;DHT22;26233;51.894;10.192;2023-07-13T07:08:44;21.90;40.00
40534;DHT22;26233;51.894;10.192;2023-07-13T07:11:13;22.00;40.80
40534;DHT22;26233;51.894;10.192;2023-07-13T07:13:41;22.20;40.70
40534;DHT22;26233;51.894;10.192;2023-07-13T07:16:08;22.40;41.20
40534;DHT22;26233;51.894;10.192;2023-07-13T07:18:35;22.80;41.60
40534;DHT22;26233;51.894;10.192;2023-07-13T07:21:04;23.20;42.20
40534;DHT22;26233;51.894;10.192;2023-07-13T07:23:31;23.70;42.50
40534;DHT22;26233;51.894;10.192;2023-07-13T07:25:59;24.30;42.80
40534;DHT22;26233;51.894;10.192;2023-07-13T07:28:26;25.00;42.70
40534;DHT22;26233;51.894;10.192;2023-07-13T07:30:55;25.60;42.40
40534;DHT22;26233;51.894;10.192;2023-07-13T07:33:23;26.20;41.80
40534;DHT22;26233;51.894;10.192;2023-07-13T07:35:51;26.80;40.90
40534;DHT22;26233;51.894;10.192;2023-07-13T07:38:19;27.40;40.80
40534;DHT22;26233;51.894;10.192;2023-07-13T07:40:47;27.90;40.40
40534;DHT22;26233;51.894;10.192;2023-07-13T07:43:13;28.40;39.80
40534;DHT22;26233;51.894;10.192;2023-07-13T07:45:40;28.80;39.10
40534;DHT22;26233;51.894;10.192;2023-07-13T07:48:07;29.10;38.30
40534;DHT22;26233;51.894;10.192;2023-07-13T07:50:35;29.30;37.70
40534;DHT22;26233;51.894;10.192;2023-07-13T07:53:02;29.50;37.10
40534;DHT22;26233;51.894;10.192;2023-07-13T07:55:34;29.60;36.60
40534;DHT22;26233;51.894;10.192;2023-07-13T07:58:01;29.70;36.50
40534;DHT22;26233;51.894;10.192;2023-07-13T08:00:28;29.80;36.80
40534;DHT22;26233;51.894;10.192;2023-07-13T08:02:57;30.00;36.50
40534;DHT22;26233;51.894;10.192;2023-07-13T08:05:24;30.10;35.80
40534;DHT22;26233;51.894;10.192;2023-07-13T08:07:51;30.20;35.50
40534;DHT22;26233;51.894;10.192;2023-07-13T08:10:19;30.30;35.20
40534;DHT22;26233;51.894;10.192;2023-07-13T08:12:47;30.30;34.90
40534;DHT22;26233;51.894;10.192;2023-07-13T08:15:15;30.30;34.40
40534;DHT22;26233;51.894;10.192;2023-07-13T08:17:46;30.10;33.70
40534;DHT22;26233;51.894;10.192;2023-07-13T08:20:14;29.70;32.80
40534;DHT22;26233;51.894;10.192;2023-07-13T08:22:42;29.30;32.50
40534;DHT22;26233;51.894;10.192;2023-07-13T08:25:09;28.80;32.30
40534;DHT22;26233;51.894;10.192;2023-07-13T08:27:36;28.30;32.50
40534;DHT22;26233;51.894;10.192;2023-07-13T08:30:05;27.90;32.70
40534;DHT22;26233;51.894;10.192;2023-07-13T08:32:33;27.40;32.90
40534;DHT22;26233;51.894;10.192;2023-07-13T08:35:00;27.10;33.50
40534;DHT22;26233;51.894;10.192;2023-07-13T08:37:27;27.00;34.40
40534;DHT22;26233;51.894;10.192;2023-07-13T08:39:54;27.00;34.80
40534;DHT22;26233;51.894;10.192;2023-07-13T08:42:35;27.10;35.10
40534;DHT22;26233;51.894;10.192;2023-07-13T08:45:13;27.20;34.90
40534;DHT22;26233;51.894;10.192;2023-07-13T08:47:47;27.50;35.20
40534;DHT22;26233;51.894;10.192;2023-07-13T08:50:23;27.60;35.00
40534;DHT22;26233;51.894;10.192;2023-07-13T08:52:53;27.70;34.30
40534;DHT22;26233;51.894;10.192;2023-07-13T08:55:26;27.60;33.80
40534;DHT22;26233;51.894;10.192;2023-07-13T08:58:05;27.50;33.30
40534;DHT22;26233;51.894;10.192;2023-07-13T09:00:46;27.30;34.00
40534;DHT22;26233;51.894;10.192;2023-07-13T09:03:20;27.10;33.40
40534;DHT22;26233;51.894;10.192;2023-07-13T09:05:53;26.90;33.50
40534;DHT22;26233;51.894;10.192;2023-07-13T09:08:45;26.80;33.60
40534;DHT22;26233;51.894;10.192;2023-07-13T09:11:28;26.70;33.40
40534;DHT22;26233;51.894;10.192;2023-07-13T09:14:12;26.60;33.40
40534;DHT22;26233;51.894;10.192;2023-07-13T09:16:54;26.40;33.40
40534;DHT22;26233;51.894;10.192;2023-07-13T09:19:26;26.30;33.90
40534;DHT22;26233;51.894;10.192;2023-07-13T09:21:56;26.40;34.40
40534;DHT22;26233;51.894;10.192;2023-07-13T09:24:31;26.50;34.60
40534;DHT22;26233;51.894;10.192;2023-07-13T09:27:12;26.70;35.00
40534;DHT22;26233;51.894;10.192;2023-07-13T09:29:47;26.90;34.70
40534;DHT22;26233;51.894;10.192;2023-07-13T09:32:21;27.10;34.40
40534;DHT22;26233;51.894;10.192;2023-07-13T09:34:51;27.20;34.00
40534;DHT22;26233;51.894;10.192;2023-07-13T09:37:21;27.30;33.80
40534;DHT22;26233;51.894;10.192;2023-07-13T09:39:54;27.30;33.80
40534;DHT22;26233;51.894;10.192;2023-07-13T09:42:22;27.20;34.30
40534;DHT22;26233;51.894;10.192;2023-07-13T09:44:54;27.30;33.70
40534;DHT22;26233;51.894;10.192;2023-07-13T09:47:25;27.30;34.00
40534;DHT22;26233;51.894;10.192;2023-07-13T09:49:56;27.40;33.90
40534;DHT22;26233;51.894;10.192;2023-07-13T09:52:25;27.60;34.10
40534;DHT22;26233;51.894;10.192;2023-07-13T09:54:53;27.90;34.60
40534;DHT22;26233;51.894;10.192;2023-07-13T09:57:26;28.20;35.00
40534;DHT22;26233;51.894;10.192;2023-07-13T09:59:55;28.50;34.60
40534;DHT22;26233;51.894;10.192;2023-07-13T10:02:28;28.70;33.70
40534;DHT22;26233;51.894;10.192;2023-07-13T10:04:57;28.70;33.00
40534;DHT22;26233;51.894;10.192;2023-07-13T10:07:26;28.80;33.30
40534;DHT22;26233;51.894;10.192;2023-07-13T10:09:53;29.00;33.80
40534;DHT22;26233;51.894;10.192;2023-07-13T10:12:21;29.30;34.10
40534;DHT22;26233;51.894;10.192;2023-07-13T10:14:51;29.70;34.20
40534;DHT22;26233;51.894;10.192;2023-07-13T10:17:31;30.10;34.10
40534;DHT22;26233;51.894;10.192;2023-07-13T10:20:03;30.40;33.20
40534;DHT22;26233;51.894;10.192;2023-07-13T10:22:39;30.70;33.30
40534;DHT22;26233;51.894;10.192;2023-07-13T10:25:16;31.00;32.80
40534;DHT22;26233;51.894;10.192;2023-07-13T10:27:45;31.10;32.00
40534;DHT22;26233;51.894;10.192;2023-07-13T10:30:17;31.30;32.30
40534;DHT22;26233;51.894;10.192;2023-07-13T10:32:50;31.50;32.20
40534;DHT22;26233;51.894;10.192;2023-07-13T10:35:20;31.70;31.80
40534;DHT22;26233;51.894;10.192;2023-07-13T10:37:49;31.80;31.50
40534;DHT22;26233;51.894;10.192;2023-07-13T10:40:22;31.90;30.80
40534;DHT22;26233;51.894;10.192;2023-07-13T10:42:56;31.80;30.40
40534;DHT22;26233;51.894;10.192;2023-07-13T10:45:24;31.60;30.00
40534;DHT22;26233;51.894;10.192;2023-07-13T10:47:54;31.40;30.00
40534;DHT22;26233;51.894;10.192;2023-07-13T10:50:25;31.30;30.10
40534;DHT22;26233;51.894;10.192;2023-07-13T10:53:02;31.20;30.10
40534;DHT22;26233;51.894;10.192;2023-07-13T10:55:38;31.10;30.00
40534;DHT22;26233;51.894;10.192;2023-07-13T10:58:19;31.00;29.90
40534;DHT22;26233;51.894;10.192;2023-07-13T11:00:49;30.90;29.80
40534;DHT22;26233;51.894;10.192;2023-07-13T11:03:22;30.70;29.80
40534;DHT22;26233;51.894;10.192;2023-07-13T11:06:05;30.60;29.80
40534;DHT22;26233;51.894;10.192;2023-07-13T11:08:37;30.50;29.80
40534;DHT22;26233;51.894;10.192;2023-07-13T11:11:33;30.40;30.00
40534;DHT22;26233;51.894;10.192;2023-07-13T11:14:04;30.40;29.70
40534;DHT22;26233;51.894;10.192;2023-07-13T11:16:45;30.30;29.70
40534;DHT22;26233;51.894;10.192;2023-07-13T11:22:42;29.70;29.10
40534;DHT22;26233;51.894;10.192;2023-07-13T11:25:28;29.40;29.50
40534;DHT22;26233;51.894;10.192;2023-07-13T11:28:18;29.30;29.90
40534;DHT22;26233;51.894;10.192;2023-07-13T11:33:54;29.70;30.40
40534;DHT22;26233;51.894;10.192;2023-07-13T11:36:30;29.90;30.30
40534;DHT22;26233;51.894;10.192;2023-07-13T11:39:02;30.20;30.60
40534;DHT22;26233;51.894;10.192;2023-07-13T11:41:35;30.60;30.60
40534;DHT22;26233;51.894;10.192;2023-07-13T11:44:12;30.90;30.30
40534;DHT22;26233;51.894;10.192;2023-07-13T11:46:45;31.10;29.40
40534;DHT22;26233;51.894;10.192;2023-07-13T11:49:16;31.20;29.60
40534;DHT22;26233;51.894;10.192;2023-07-13T11:51:45;31.40;29.80
40534;DHT22;26233;51.894;10.192;2023-07-13T11:54:24;31.60;29.80
40534;DHT22;26233;51.894;10.192;2023-07-13T11:56:54;31.80;29.50
40534;DHT22;26233;51.894;10.192;2023-07-13T11:59:22;31.90;29.30
40534;DHT22;26233;51.894;10.192;2023-07-13T12:01:52;31.90;28.80
40534;DHT22;26233;51.894;10.192;2023-07-13T12:04:24;31.80;28.40
40534;DHT22;26233;51.894;10.192;2023-07-13T12:06:57;31.60;28.20
40534;DHT22;26233;51.894;10.192;2023-07-13T12:09:27;31.40;28.00
40534;DHT22;26233;51.894;10.192;2023-07-13T12:11:56;31.10;27.80
40534;DHT22;26233;51.894;10.192;2023-07-13T12:14:26;30.90;28.10
40534;DHT22;26233;51.894;10.192;2023-07-13T12:16:53;30.70;28.10
40534;DHT22;26233;51.894;10.192;2023-07-13T12:19:23;30.50;28.00
40534;DHT22;26233;51.894;10.192;2023-07-13T12:21:54;30.30;27.80
40534;DHT22;26233;51.894;10.192;2023-07-13T12:24:25;30.00;27.70
40534;DHT22;26233;51.894;10.192;2023-07-13T12:26:54;29.70;27.70
40534;DHT22;26233;51.894;10.192;2023-07-13T12:29:26;29.50;27.60
40534;DHT22;26233;51.894;10.192;2023-07-13T12:31:54;29.30;27.80
40534;DHT22;26233;51.894;10.192;2023-07-13T12:34:23;29.10;27.80
40534;DHT22;26233;51.894;10.192;2023-07-13T12:36:53;28.90;27.80
40534;DHT22;26233;51.894;10.192;2023-07-13T12:39:30;28.90;28.10
40534;DHT22;26233;51.894;10.192;2023-07-13T12:42:17;28.80;28.50
40534;DHT22;26233;51.894;10.192;2023-07-13T12:44:47;28.90;28.70
40534;DHT22;26233;51.894;10.192;2023-07-13T12:47:15;29.00;28.80
40534;DHT22;26233;51.894;10.192;2023-07-13T12:49:48;29.00;28.70
40534;DHT22;26233;51.894;10.192;2023-07-13T12:52:21;29.10;28.70
40534;DHT22;26233;51.894;10.192;2023-07-13T12:54:55;29.10;28.50
40534;DHT22;26233;51.894;10.192;2023-07-13T12:57:23;29.10;28.30
40534;DHT22;26233;51.894;10.192;2023-07-13T12:59:53;29.10;28.50
40534;DHT22;26233;51.894;10.192;2023-07-13T13:02:28;29.00;28.30
40534;DHT22;26233;51.894;10.192;2023-07-13T13:04:57;28.90;28.30
40534;DHT22;26233;51.894;10.192;2023-07-13T13:07:25;28.90;28.50
40534;DHT22;26233;51.894;10.192;2023-07-13T13:09:56;28.90;28.80
40534;DHT22;26233;51.894;10.192;2023-07-13T13:12:23;28.80;28.70
40534;DHT22;26233;51.894;10.192;2023-07-13T13:14:53;28.80;28.60
40534;DHT22;26233;51.894;10.192;2023-07-13T13:17:21;28.80;28.50
40534;DHT22;26233;51.894;10.192;2023-07-13T13:19:57;28.80;28.50
40534;DHT22;26233;51.894;10.192;2023-07-13T13:22:24;28.70;28.50
40534;DHT22;26233;51.894;10.192;2023-07-13T13:24:51;28.70;28.50
40534;DHT22;26233;51.894;10.192;2023-07-13T13:27:21;28.70;28.60
40534;DHT22;26233;51.894;10.192;2023-07-13T13:29:49;28.60;28.60
40534;DHT22;26233;51.894;10.192;2023-07-13T13:32:18;28.60;28.60
40534;DHT22;26233;51.894;10.192;2023-07-13T13:34:45;28.50;28.60
40534;DHT22;26233;51.894;10.192;2023-07-13T13:37:20;28.50;28.60
40534;DHT22;26233;51.894;10.192;2023-07-13T13:39:50;28.50;28.50
40534;DHT22;26233;51.894;10.192;2023-07-13T13:42:21;28.40;28.40
40534;DHT22;26233;51.894;10.192;2023-07-13T13:44:50;28.40;28.40
40534;DHT22;26233;51.894;10.192;2023-07-13T13:47:27;28.30;28.20
40534;DHT22;26233;51.894;10.192;2023-07-13T13:49:56;28.20;28.20
40534;DHT22;26233;51.894;10.192;2023-07-13T13:52:24;28.00;28.30
40534;DHT22;26233;51.894;10.192;2023-07-13T13:54:51;27.90;28.30
40534;DHT22;26233;51.894;10.192;2023-07-13T13:57:23;27.90;28.40
40534;DHT22;26233;51.894;10.192;2023-07-13T13:59:51;27.90;28.50
40534;DHT22;26233;51.894;10.192;2023-07-13T14:02:26;27.80;28.60
40534;DHT22;26233;51.894;10.192;2023-07-13T14:04:57;27.80;28.80
40534;DHT22;26233;51.894;10.192;2023-07-13T14:07:26;27.80;28.60
40534;DHT22;26233;51.894;10.192;2023-07-13T14:09:57;27.80;28.60
40534;DHT22;26233;51.894;10.192;2023-07-13T14:12:27;27.80;28.60
40534;DHT22;26233;51.894;10.192;2023-07-13T14:14:56;27.90;28.70
40534;DHT22;26233;51.894;10.192;2023-07-13T14:17:25;27.80;28.50
40534;DHT22;26233;51.894;10.192;2023-07-13T14:19:53;27.80;28.40
40534;DHT22;26233;51.894;10.192;2023-07-13T14:22:23;27.70;28.10
40534;DHT22;26233;51.894;10.192;2023-07-13T14:24:51;27.70;28.20
40534;DHT22;26233;51.894;10.192;2023-07-13T14:27:20;27.60;28.20
40534;DHT22;26233;51.894;10.192;2023-07-13T14:29:48;27.60;28.20
40534;DHT22;26233;51.894;10.192;2023-07-13T14:32:16;27.50;28.20
40534;DHT22;26233;51.894;10.192;2023-07-13T14:34:43;27.50;28.40
40534;DHT22;26233;51.894;10.192;2023-07-13T14:37:13;27.50;28.50
40534;DHT22;26233;51.894;10.192;2023-07-13T14:39:43;27.60;28.80
40534;DHT22;26233;51.894;10.192;2023-07-13T14:42:11;27.70;28.80
40534;DHT22;26233;51.894;10.192;2023-07-13T14:44:39;27.80;28.70
40534;DHT22;26233;51.894;10.192;2023-07-13T14:47:08;27.90;28.60
40534;DHT22;26233;51.894;10.192;2023-07-13T14:49:38;27.90;28.50
40534;DHT22;26233;51.894;10.192;2023-07-13T14:52:11;27.90;28.40
40534;DHT22;26233;51.894;10.192;2023-07-13T14:54:40;27.90;28.50
40534;DHT22;26233;51.894;10.192;2023-07-13T14:57:10;27.80;28.40
40534;DHT22;26233;51.894;10.192;2023-07-13T14:59:39;27.80;28.30
40534;DHT22;26233;51.894;10.192;2023-07-13T15:02:16;27.70;28.30
40534;DHT22;26233;51.894;10.192;2023-07-13T15:04:44;27.60;28.40
40534;DHT22;26233;51.894;10.192;2023-07-13T15:07:11;27.50;28.50
40534;DHT22;26233;51.894;10.192;2023-07-13T15:09:41;27.60;28.70
40534;DHT22;26233;51.894;10.192;2023-07-13T15:12:08;27.60;28.70
40534;DHT22;26233;51.894;10.192;2023-07-13T15:14:36;27.60;28.60
40534;DHT22;26233;51.894;10.192;2023-07-13T15:17:04;27.50;28.60
40534;DHT22;26233;51.894;10.192;2023-07-13T15:19:36;27.50;28.60
40534;DHT22;26233;51.894;10.192;2023-07-13T15:22:04;27.40;28.50
40534;DHT22;26233;51.894;10.192;2023-07-13T15:24:31;27.30;28.50
40534;DHT22;26233;51.894;10.192;2023-07-13T15:26:58;27.20;28.80
40534;DHT22;26233;51.894;10.192;2023-07-13T15:29:25;27.10;28.50
40534;DHT22;26233;51.894;10.192;2023-07-13T15:31:54;27.10;29.10
40534;DHT22;26233;51.894;10.192;2023-07-13T15:34:24;26.90;28.50
40534;DHT22;26233;51.894;10.192;2023-07-13T15:36:54;26.80;28.50